Observations for CRANFIELD, United Kingdom (EGTC)

EGTC 130850Z 12009KT CAVOK 02/00 Q1017  
EGTC 130820Z 11008KT CAVOK 02/00 Q1017  
EGTC 121720Z 12008KT CAVOK 03/M00 Q1020 
EGTC 121550Z 11008KT CAVOK 04/01 Q1020  
EGTC 121520Z 12010KT 9999 FEW035 05/01 Q1020
EGTC 121450Z 13010KT 9999 FEW033 07/02 Q1020
EGTC 121420Z 14012KT 9999 FEW035 07/02 Q1020
EGTC 121350Z 12007KT 9000 FEW035 07/03 Q1021
EGTC 121320Z 13008KT 8000 SCT031 07/03 Q1021
EGTC 121250Z 12010KT 8000 FEW019 SCT031 07/03 Q1021 
EGTC 121220Z 13007KT 8000 FEW030 SCT045 07/04 Q1022 
EGTC 121150Z 14009KT 100V160 7000 SCT015 07/04 Q1022
EGTC 121120Z 11007KT 6000 SCT015 07/05 Q1022
EGTC 121050Z 13007KT 080V150 6000 FEW010 SCT025 06/05 Q1022 
EGTC 121020Z 14009KT 4500 HZ BKN027 06/05 Q1022 
EGTC 120950Z 14012KT 5000 HZ BKN027 07/05 Q1022 
EGTC 120920Z 14010KT 6000 BKN027 06/05 Q1022
EGTC 120850Z 12008KT 6000 BKN028 06/05 Q1022
EGTC 120820Z 13008KT 9999 BKN031 06/05 Q1022